Racecast

Muscogee County School District Invitational

Kinnett Stadium · 5000m · Boys · Varsity · 2016-08-27 · GA

Course difficulty: +1.9%i

Race-day weather: 87°F · wind 23 mph · humidity 45%

View full meet →

Team scores

Place Team Points 12345 67
1 Lamar County (GA) 64 4 7 14 17 22 32 57
2 Columbus (GA) 82 1 8 20 26 27 28 33
3 Pike County (GA) 118 16 19 24 29 30 34 37
4 Brookstone (GA) 123 6 10 23 40 44 53 58
5 Northside (Columbus) (GA) 125 2 3 13 48 59 63
6 Harris County (GA) 139 12 25 31 35 36 41 46
7 Jordan (GA) 147 5 9 39 42 52 64 66
8 Marion County (GA) 221 15 43 49 54 60 67 68
9 Shaw (GA) 222 11 45 50 55 61 62
10 William H Spencer (GA) 227 21 38 47 56 65 72
11 Heard County (GA) 279 18 51 69 70 71

As scored by the meet.

Results

Place Athlete Grade School Time Ratingi Points
1 Alex Salgado 11 Columbus (NE) 1 18:17.1 115.9 1
2 Jonathan Myrthil 10 Northside (Columbus) (GA) 1 18:49.9 112.5 2
3 Russ Korreye 12 Hardaway (GA) 1 19:00.2 PR 111.5
4 Devin Walters 12 Northside (Columbus) (GA) 2 19:00.7 PR 111.5 3
5 Frank Spafford 12 Lamar County (GA) 1 19:05.5 PR 111.0 4
6 Quan Perryman 12 Jordan (NC) 1 19:05.9 PR 111.0 5
7 Caleb Pattillo 10 Brookstone (GA) 1 19:06.7 PR 110.9 6
8 John Griner 11 Lamar County (GA) 2 19:08.6 PR 110.7 7
9 Andrew White 10 Columbus (NE) 2 19:09.8 110.6 8
10 DeMarcus Boulware 11 Jordan (NC) 2 19:31.9 PR 108.5 9
11 Sidney Saber 10 Brookstone (GA) 2 19:35.7 PR 108.2 10
12 Benjamin Knox 9 Shaw (GA) 1 19:53.4 PR 11
13 John Phillips 10 Harris County (GA) 1 19:54.7 SR 106.4 12
14 Ben Thompson 9 Northside (Columbus) (GA) 3 19:58.9 PR 106.1 13
15 Denver Green 12 Lamar County (GA) 3 20:05 PR 105.5 14
16 Nathan Moon 12 Marion County (MO) 1 20:08.1 PR 105.3 15
17 Cameron Holloway 11 Pike County (GA) 1 20:09.5 PR 105.1 16
18 Canon Templeton 11 Lamar County (GA) 4 20:18 PR 104.4 17
19 Dawson Cao 10 Heard County (GA) 1 20:20.8 PR 104.2 18
20 Gabe Smith 11 Pike County (GA) 2 20:24.2 PR 103.9 19
21 Frank Lumpkin 12 Columbus (NE) 3 20:25.4 103.8 20
22 Chris Gorman 12 William H Spencer (GA) 1 20:32.1 SR 103.2 21
23 Dominique Thomas 9 Hardaway (GA) 2 20:39.5 PR 102.6
24 Steve Lopez 12 Lamar County (GA) 5 20:46 PR 102.1 22
25 Briggs Kalish 10 Brookstone (GA) 3 20:52.5 PR 101.5 23
26 Austin Hemphill 10 Pike County (GA) 3 20:53.2 PR 101.5 24
27 John Lee 12 Harris County (GA) 2 21:02.2 SR 100.8 25
28 Christopher Daniels 11 Columbus (NE) 4 21:02.6 100.7 26
29 Benjamin Smith 11 Columbus (NE) 5 21:03.6 100.6 27
30 Thomas Bennett 11 Columbus (NE) 6 21:03.7 100.6 28
31 Landon Watts 11 Pike County (GA) 4 21:04 PR 100.6 29
32 Nathan Dodson 11 Pike County (GA) 5 21:26.5 PR 98.8 30
33 James Harris 12 Harris County (GA) 3 21:41.5 PR 97.7 31
34 Michael Pisarick 10 Calvary Christian (GA) 1 21:51.3 PR 97.0
35 Caleb Thompson 10 Lamar County (GA) 6 21:52.3 PR 96.9 32
36 Keyshawn White 11 Columbus (NE) 7 21:52.8 PR 96.9 33
37 Noah Buice 10 Pike County (GA) 6 21:54.7 PR 96.7 34
38 Ty Chapman 9 Harris County (GA) 4 21:56.4 PR 96.6 35
39 Harrison Tew 12 Harris County (GA) 5 21:59 PR 96.4 36
40 Gavin Burford 10 Pike County (GA) 7 22:05.1 96.0 37
41 Isaiah Arredondo 11 William H Spencer (GA) 2 22:05.5 PR 95.9 38
42 Colin Dixon 11 Jordan (NC) 3 22:06.4 PR 95.9 39
43 David Thayer - Brookstone (GA) 4 22:13.4 PR 95.4 40
44 Henry Stoneback 11 Kendrick (GA) 1 22:13.4 PR 95.4
45 Jake Eishen 11 Harris County (GA) 6 22:17.8 PR 95.1 41
46 Kieonte Davis 11 Jordan (NC) 4 22:18.7 PR 95.0 42
47 James Welch 10 Marion County (MO) 2 22:19.1 PR 95.0 43
48 Leo Beaudoin 11 Brookstone (GA) 5 22:21.5 PR 94.8 44
49 Matthew Alverson 9 Shaw (GA) 2 22:32.9 PR 94.0 45
50 Seth McLaughlin 9 Harris County (GA) 7 22:34.6 PR 93.9 46
51 Jaylen Neal 10 William H Spencer (GA) 3 22:42.7 PR 93.3 47
52 Taelue Vinson 9 Northside (Columbus) (GA) 4 22:47.6 93.0 48
53 Aj Wilburn 10 Marion County (MO) 3 22:50.9 PR 92.8 49
54 Cameron Derrick 9 Shaw (GA) 3 22:54.3 PR 92.5 50
55 Garrett Callahan 10 Heard County (GA) 2 22:57.1 PR 92.3 51
56 Tyler Simmons 10 Jordan (NC) 5 22:57.3 PR 92.3 52
57 Ryan Drew 10 Brookstone (GA) 6 23:03.4 PR 91.9 53
58 Ryan Widner 12 Marion County (MO) 4 23:06 PR 91.8 54
59 Kelly Farmer 11 Shaw (GA) 4 23:08.9 PR 91.6 55
60 Henry Felton 12 William H Spencer (GA) 4 23:16.4 PR 91.1 56
61 Zachary Allen 12 Lamar County (GA) 7 23:24.5 PR 90.5 57
62 Jack Fergusson 12 Brookstone (GA) 7 23:37.2 PR 89.7 58
63 Tripp Taylor 11 Northside (Columbus) (GA) 5 23:55.1 88.6 59
64 Andrew Harris 10 Marion County (MO) 5 24:11.6 PR 87.6 60
65 Lamarcus Whittlesey 12 Shaw (GA) 5 24:17.4 PR 87.3 61
66 Tq Eberhart 10 Shaw (GA) 6 24:23.6 PR 86.9 62
67 Marqes Wright 10 Kendrick (GA) 2 24:27.8 PR 86.6
68 Jack Flemming 12 Northside (Columbus) (GA) 6 24:36.8 86.1 63
69 Jarrett Foster 12 Jordan (NC) 6 24:41.2 PR 85.8 64
70 Jemil Melendez 11 William H Spencer (GA) 5 25:01.1 PR 84.7 65
71 Christian Gary 12 Jordan (NC) 7 25:23.6 PR 83.5 66
72 Dylan Halbrook 10 Marion County (MO) 6 25:33.7 PR 82.9 67
73 Carlos Ortega 9 Marion County (MO) 7 25:46.6 PR 82.2 68
74 Cameron Murray 10 Hardaway (GA) 3 26:22.7 PR 80.3
75 John Rembert - Columbus (NE) 8 27:34.7 PR 76.8
76 Eli Fairbanks 11 Heard County (GA) 3 28:22.5 PR 74.7 69
77 Zeke Lewis 10 Heard County (GA) 4 28:22.7 PR 74.7 70
78 Oren Richards 10 Heard County (GA) 5 28:39.3 PR 74.0 71
79 Keshawn Hurt - Columbus (NE) 9 31:11.1 PR 68.0
80 Sir Darrius Barnes - Columbus (NE) 10 31:11.8 PR 67.9
81 Demichael Coe 11 William H Spencer (GA) 6 31:52.3 PR 66.5 72
Something wrong on this page? Report it →